Time;durP1;ratioP1;P1;durP2;ratioP2;P2;SDS_P1;SDS_P2;PMS_P1;PMS_P2;Temp;Humidity;BMP_temperature;BMP_pressure;BME280_temperature;BME280_humidity;BME280_pressure;Samples;Min_cycle;Max_cycle;Signal;HPM_P1;HPM_P2
2023/07/04 00:00:21;;;;;;;1.85;1.52;;;;;;;;;;10383619;28;20025;-59
2023/07/04 00:05:23;;;;;;;6.25;1.58;;;;;;;;;;10382860;28;20478;-59
2023/07/04 00:10:23;;;;;;;3.40;1.52;;;;;;;;;;10375847;28;20095;-59
2023/07/04 00:15:24;;;;;;;2.55;1.70;;;;;;;;;;10402323;28;20185;-59
2023/07/04 00:20:25;;;;;;;2.20;1.48;;;;;;;;;;10386219;28;20038;-59
2023/07/04 00:25:26;;;;;;;1.63;1.40;;;;;;;;;;10383080;28;20532;-59
2023/07/04 00:30:27;;;;;;;3.17;1.17;;;;;;;;;;10370850;28;20034;-59
2023/07/04 00:35:27;;;;;;;1.90;1.50;;;;;;;;;;10381917;28;20034;-59
2023/07/04 00:40:28;;;;;;;3.08;1.60;;;;;;;;;;10369474;28;20032;-59
2023/07/04 00:45:37;;;;;;;2.20;1.40;;;;;;;;;;10383026;28;20114;-59
2023/07/04 00:50:43;;;;;;;2.13;1.25;;;;;;;;;;10402837;28;20465;-59
2023/07/04 00:55:48;;;;;;;3.03;1.30;;;;;;;;;;10398553;28;20029;-59
2023/07/04 01:00:48;;;;;;;3.33;1.20;;;;;;;;;;10384844;28;20469;-59
2023/07/04 01:06:10;;;;;;;2.88;1.55;;;;;;;;;;10369327;28;20049;-59
2023/07/04 01:11:21;;;;;;;4.07;1.40;;;;;;;;;;10390338;28;20032;-59
2023/07/04 01:16:23;;;;;;;1.50;1.40;;;;;;;;;;10399615;28;20029;-59
2023/07/04 01:21:27;;;;;;;4.18;1.30;;;;;;;;;;10379695;28;20034;-59
2023/07/04 01:26:47;;;;;;;1.58;1.27;;;;;;;;;;10392451;28;20033;-59
2023/07/04 01:31:47;;;;;;;2.78;1.48;;;;;;;;;;10378639;28;20025;-59
2023/07/04 01:36:49;;;;;;;4.05;1.63;;;;;;;;;;10392816;28;20025;-59
2023/07/04 01:41:49;;;;;;;3.17;1.60;;;;;;;;;;10386973;28;20053;-59
2023/07/04 01:46:51;;;;;;;3.08;1.50;;;;;;;;;;10370869;28;20025;-59
2023/07/04 01:51:52;;;;;;;2.17;1.38;;;;;;;;;;10380975;28;20017;-59
2023/07/04 01:56:52;;;;;;;1.65;1.25;;;;;;;;;;10394828;28;20041;-59
2023/07/04 02:01:53;;;;;;;1.30;1.20;;;;;;;;;;10381184;28;20022;-59
2023/07/04 02:06:53;;;;;;;2.72;1.30;;;;;;;;;;10378926;28;20034;-59
2023/07/04 02:11:54;;;;;;;2.65;1.35;;;;;;;;;;10383343;28;20030;-59
2023/07/04 02:16:55;;;;;;;1.73;1.35;;;;;;;;;;10365797;28;20030;-59
2023/07/04 02:21:55;;;;;;;3.47;1.45;;;;;;;;;;10391373;28;20569;-59
2023/07/04 02:26:56;;;;;;;6.57;1.40;;;;;;;;;;10395550;28;20075;-58
2023/07/04 02:31:56;;;;;;;5.68;1.30;;;;;;;;;;10372883;28;20394;-58
2023/07/04 02:36:57;;;;;;;3.00;1.30;;;;;;;;;;10386870;28;20040;-58
2023/07/04 02:41:58;;;;;;;2.45;1.38;;;;;;;;;;10387248;28;20562;-58
2023/07/04 02:46:58;;;;;;;3.20;1.50;;;;;;;;;;10386508;28;20073;-59
2023/07/04 02:51:59;;;;;;;1.83;1.00;;;;;;;;;;10388922;28;20022;-58
2023/07/04 02:56:59;;;;;;;1.30;1.20;;;;;;;;;;10407084;28;20017;-58
2023/07/04 03:02:00;;;;;;;1.60;1.33;;;;;;;;;;10389179;28;20022;-58
2023/07/04 03:07:00;;;;;;;1.58;1.10;;;;;;;;;;10410567;28;20029;-58
2023/07/04 03:12:01;;;;;;;2.85;1.55;;;;;;;;;;10398858;28;20026;-58
2023/07/04 03:17:02;;;;;;;2.58;1.45;;;;;;;;;;10388547;28;20056;-58
2023/07/04 03:22:03;;;;;;;1.27;1.15;;;;;;;;;;10384724;28;20117;-59
2023/07/04 03:27:04;;;;;;;1.40;1.30;;;;;;;;;;10385239;28;20527;-59
2023/07/04 03:32:05;;;;;;;2.10;1.15;;;;;;;;;;10370286;28;20022;-59
2023/07/04 03:37:06;;;;;;;5.15;1.27;;;;;;;;;;10402615;28;20067;-59
2023/07/04 03:42:07;;;;;;;4.43;1.45;;;;;;;;;;10395815;28;20052;-59
2023/07/04 03:47:07;;;;;;;2.65;1.30;;;;;;;;;;10394619;28;20116;-58
2023/07/04 03:52:08;;;;;;;2.30;1.40;;;;;;;;;;10391741;28;20215;-59
2023/07/04 03:57:09;;;;;;;2.65;1.30;;;;;;;;;;10395960;28;20053;-59
2023/07/04 04:02:10;;;;;;;4.03;1.25;;;;;;;;;;10394561;28;20384;-59
2023/07/04 04:07:11;;;;;;;2.72;1.20;;;;;;;;;;10399615;28;20056;-59
2023/07/04 04:12:11;;;;;;;6.72;1.30;;;;;;;;;;10397773;28;20018;-59
2023/07/04 04:17:13;;;;;;;2.72;1.20;;;;;;;;;;10404265;28;20481;-59
2023/07/04 04:22:14;;;;;;;2.45;1.17;;;;;;;;;;10393903;28;20025;-58
2023/07/04 04:27:15;;;;;;;2.42;1.42;;;;;;;;;;10380816;28;20057;-60
2023/07/04 04:32:16;;;;;;;5.50;1.20;;;;;;;;;;10398147;28;20030;-58
2023/07/04 04:37:16;;;;;;;1.27;0.93;;;;;;;;;;10383731;28;20030;-59
2023/07/04 04:42:17;;;;;;;3.97;1.35;;;;;;;;;;10399551;28;20048;-59
2023/07/04 04:47:22;;;;;;;3.63;1.38;;;;;;;;;;10393920;28;20025;-59
2023/07/04 04:52:23;;;;;;;1.92;1.20;;;;;;;;;;10388254;28;20225;-58
2023/07/04 04:57:23;;;;;;;5.50;1.25;;;;;;;;;;10389119;28;20469;-59
2023/07/04 05:02:25;;;;;;;1.27;1.17;;;;;;;;;;10390949;28;20076;-59
2023/07/04 05:07:27;;;;;;;10.05;1.50;;;;;;;;;;10387001;28;20033;-59
2023/07/04 05:12:27;;;;;;;2.65;1.30;;;;;;;;;;10395380;28;20037;-59
2023/07/04 05:17:28;;;;;;;4.95;1.30;;;;;;;;;;10381328;28;20025;-59
2023/07/04 05:22:29;;;;;;;1.45;1.10;;;;;;;;;;10371003;28;20099;-59
2023/07/04 05:27:29;;;;;;;1.20;1.10;;;;;;;;;;10382125;28;20505;-59
2023/07/04 05:32:30;;;;;;;7.72;1.17;;;;;;;;;;10371587;28;20030;-58
2023/07/04 05:37:31;;;;;;;1.60;1.23;;;;;;;;;;10387080;28;20034;-60
2023/07/04 05:42:32;;;;;;;4.93;1.73;;;;;;;;;;10383295;28;20069;-60
2023/07/04 05:47:32;;;;;;;2.85;1.90;;;;;;;;;;10386642;28;20029;-61
2023/07/04 05:52:33;;;;;;;4.65;2.05;;;;;;;;;;10391228;28;20156;-60
2023/07/04 05:57:34;;;;;;;4.85;2.00;;;;;;;;;;10388868;28;20029;-59
2023/07/04 06:02:34;;;;;;;2.67;1.80;;;;;;;;;;10389701;28;20030;-61
2023/07/04 06:07:36;;;;;;;3.45;1.83;;;;;;;;;;10380106;28;20038;-58
2023/07/04 06:12:36;;;;;;;11.00;2.20;;;;;;;;;;10376525;28;20420;-60
2023/07/04 06:17:37;;;;;;;5.22;2.05;;;;;;;;;;10394871;28;20026;-59
2023/07/04 06:22:38;;;;;;;4.32;2.40;;;;;;;;;;10390005;28;20044;-58
2023/07/04 06:27:41;;;;;;;9.02;1.80;;;;;;;;;;10373605;28;20030;-58
2023/07/04 06:32:42;;;;;;;2.83;2.00;;;;;;;;;;10371418;28;20029;-58
2023/07/04 06:37:44;;;;;;;7.70;2.25;;;;;;;;;;10384409;28;20470;-59
2023/07/04 06:42:44;;;;;;;13.27;2.25;;;;;;;;;;10387184;28;20048;-61
2023/07/04 06:47:45;;;;;;;2.80;1.52;;;;;;;;;;10375753;28;20033;-59
2023/07/04 06:52:45;;;;;;;3.78;2.15;;;;;;;;;;10392736;28;20037;-59
2023/07/04 06:57:46;;;;;;;1.88;1.58;;;;;;;;;;10384406;28;20079;-60
2023/07/04 07:02:50;;;;;;;2.58;1.65;;;;;;;;;;10402531;28;20115;-60
2023/07/04 07:07:51;;;;;;;2.88;1.90;;;;;;;;;;10389613;28;20421;-60
2023/07/04 07:12:51;;;;;;;4.63;1.80;;;;;;;;;;10375112;28;20068;-60
2023/07/04 07:17:52;;;;;;;2.35;1.60;;;;;;;;;;10367643;28;20026;-60
2023/07/04 07:22:53;;;;;;;5.20;1.77;;;;;;;;;;10394407;28;20033;-60
2023/07/04 07:27:53;;;;;;;4.28;1.83;;;;;;;;;;10383733;28;20034;-60
2023/07/04 07:32:54;;;;;;;2.25;1.80;;;;;;;;;;10385676;28;20029;-60
2023/07/04 07:37:54;;;;;;;2.38;1.50;;;;;;;;;;10384979;28;20457;-59
2023/07/04 07:42:55;;;;;;;4.35;1.80;;;;;;;;;;10387057;28;20056;-59
2023/07/04 07:47:55;;;;;;;2.60;1.98;;;;;;;;;;10383740;28;20410;-61
2023/07/04 07:52:56;;;;;;;2.47;1.48;;;;;;;;;;10396926;28;20022;-61
2023/07/04 07:57:56;;;;;;;2.00;1.58;;;;;;;;;;10386917;28;20092;-58
2023/07/04 08:02:57;;;;;;;1.67;1.52;;;;;;;;;;10384812;28;20030;-61
2023/07/04 08:07:58;;;;;;;1.77;1.67;;;;;;;;;;10377182;28;20033;-59
2023/07/04 08:12:58;;;;;;;1.85;1.70;;;;;;;;;;10381616;28;20414;-60
2023/07/04 08:18:08;;;;;;;2.58;1.50;;;;;;;;;;10383620;28;20358;-59
2023/07/04 08:23:08;;;;;;;3.22;1.73;;;;;;;;;;10376087;28;20026;-60
2023/07/04 08:28:09;;;;;;;2.58;2.10;;;;;;;;;;10381843;28;20413;-59
2023/07/04 08:33:10;;;;;;;1.95;1.67;;;;;;;;;;10384225;28;20038;-60
2023/07/04 08:38:10;;;;;;;3.13;2.05;;;;;;;;;;10380949;28;20036;-58
2023/07/04 08:43:12;;;;;;;2.13;1.65;;;;;;;;;;10390816;28;20038;-59
2023/07/04 08:48:16;;;;;;;4.88;1.92;;;;;;;;;;10387495;28;20033;-59
2023/07/04 08:53:21;;;;;;;3.72;1.67;;;;;;;;;;10394351;28;20544;-59
2023/07/04 08:58:25;;;;;;;6.63;1.95;;;;;;;;;;10388902;28;20064;-58
2023/07/04 09:03:56;;;;;;;6.55;1.75;;;;;;;;;;10387488;28;20046;-59
2023/07/04 09:09:27;;;;;;;1.73;1.60;;;;;;;;;;10383190;28;20033;-59
2023/07/04 09:14:36;;;;;;;1.60;1.50;;;;;;;;;;10382370;28;20092;-61
2023/07/04 09:19:44;;;;;;;2.70;1.80;;;;;;;;;;10377836;28;20243;-61
2023/07/04 09:24:48;;;;;;;2.30;1.60;;;;;;;;;;10392415;28;20086;-60
2023/07/04 09:29:49;;;;;;;3.40;1.80;;;;;;;;;;10380163;28;20140;-59
2023/07/04 09:35:00;;;;;;;2.55;1.63;;;;;;;;;;10404535;28;20411;-60
2023/07/04 09:40:01;;;;;;;2.58;1.90;;;;;;;;;;10403919;28;20033;-61
2023/07/04 09:45:07;;;;;;;4.70;1.67;;;;;;;;;;10391523;28;20130;-60
2023/07/04 09:50:23;;;;;;;1.58;1.48;;;;;;;;;;10394233;28;20035;-61
2023/07/04 09:55:25;;;;;;;2.85;1.67;;;;;;;;;;10388715;28;20469;-60
2023/07/04 10:00:26;;;;;;;2.95;1.70;;;;;;;;;;10375495;28;20042;-61
2023/07/04 10:05:35;;;;;;;2.85;1.60;;;;;;;;;;10386395;28;20033;-61
2023/07/04 10:10:54;;;;;;;1.73;1.63;;;;;;;;;;10400462;28;20087;-59
2023/07/04 10:15:54;;;;;;;1.85;1.60;;;;;;;;;;10373137;28;20029;-59
2023/07/04 10:20:59;;;;;;;1.60;1.50;;;;;;;;;;10381660;28;20022;-59
2023/07/04 10:26:01;;;;;;;2.53;1.75;;;;;;;;;;10404455;28;20060;-59
2023/07/04 10:31:11;;;;;;;1.95;1.42;;;;;;;;;;10393853;28;20032;-58
2023/07/04 10:36:19;;;;;;;1.52;1.42;;;;;;;;;;10377679;28;20029;-59
2023/07/04 10:41:29;;;;;;;2.35;1.55;;;;;;;;;;10396526;28;20025;-58
2023/07/04 10:46:39;;;;;;;2.13;1.63;;;;;;;;;;10396952;28;20084;-59
2023/07/04 10:51:44;;;;;;;2.40;1.73;;;;;;;;;;10387511;28;20065;-59
2023/07/04 10:56:52;;;;;;;1.45;1.33;;;;;;;;;;10396135;28;20071;-58
2023/07/04 11:02:07;;;;;;;1.50;1.27;;;;;;;;;;10403733;28;20026;-58
2023/07/04 11:07:23;;;;;;;1.50;1.40;;;;;;;;;;10392349;28;20033;-59
2023/07/04 11:12:28;;;;;;;2.95;1.52;;;;;;;;;;10390506;28;20076;-58
2023/07/04 11:17:34;;;;;;;2.58;1.58;;;;;;;;;;10385536;28;20034;-58
2023/07/04 11:22:58;;;;;;;2.58;1.48;;;;;;;;;;10385552;28;20018;-61
2023/07/04 11:28:32;;;;;;;1.45;1.35;;;;;;;;;;10389149;28;20288;-60
2023/07/04 11:33:55;;;;;;;1.50;1.40;;;;;;;;;;10396110;28;20037;-59
2023/07/04 11:39:21;;;;;;;1.52;1.40;;;;;;;;;;10372915;28;20026;-60
2023/07/04 11:44:41;;;;;;;1.83;1.58;;;;;;;;;;10392021;28;20524;-60
2023/07/04 11:49:55;;;;;;;1.55;1.45;;;;;;;;;;10395144;28;20370;-61
2023/07/04 11:55:06;;;;;;;1.55;1.35;;;;;;;;;;10383685;28;20425;-61
2023/07/04 12:00:40;;;;;;;2.25;1.60;;;;;;;;;;10381834;28;20037;-60
2023/07/04 12:05:40;;;;;;;1.67;1.50;;;;;;;;;;10383078;28;20111;-60
2023/07/04 12:10:41;;;;;;;1.40;1.30;;;;;;;;;;10408351;28;20128;-61
2023/07/04 12:15:45;;;;;;;3.95;1.50;;;;;;;;;;10393656;28;20134;-60
2023/07/04 12:20:46;;;;;;;2.20;1.40;;;;;;;;;;10394231;28;20509;-61
2023/07/04 12:25:50;;;;;;;5.45;1.50;;;;;;;;;;10383152;28;20030;-61
2023/07/04 12:30:56;;;;;;;3.10;1.48;;;;;;;;;;10392856;28;20429;-60
2023/07/04 12:36:09;;;;;;;1.92;1.58;;;;;;;;;;10389076;28;20064;-61
2023/07/04 12:41:15;;;;;;;2.78;1.63;;;;;;;;;;10389974;28;20284;-58
2023/07/04 12:46:20;;;;;;;5.00;1.60;;;;;;;;;;10391568;28;20041;-59
2023/07/04 12:51:25;;;;;;;3.28;1.50;;;;;;;;;;10391547;28;20037;-59
2023/07/04 12:56:29;;;;;;;1.92;1.40;;;;;;;;;;10386248;28;20053;-59
2023/07/04 13:01:32;;;;;;;2.60;1.40;;;;;;;;;;10389302;28;20054;-59
2023/07/04 13:06:33;;;;;;;5.47;1.83;;;;;;;;;;10384603;28;20044;-59
2023/07/04 13:11:34;;;;;;;5.10;1.77;;;;;;;;;;10403439;28;20033;-60
2023/07/04 13:16:36;;;;;;;3.05;1.70;;;;;;;;;;10377720;28;20037;-60
2023/07/04 13:21:40;;;;;;;5.30;1.65;;;;;;;;;;10384401;28;20436;-58
2023/07/04 13:26:42;;;;;;;4.32;1.73;;;;;;;;;;10392690;28;20030;-60
2023/07/04 13:31:44;;;;;;;3.47;1.65;;;;;;;;;;10391929;28;20029;-60
2023/07/04 13:36:52;;;;;;;4.70;1.40;;;;;;;;;;10395240;28;20101;-59
2023/07/04 13:41:54;;;;;;;5.65;1.75;;;;;;;;;;10400008;28;20037;-58
2023/07/04 13:46:55;;;;;;;2.65;1.73;;;;;;;;;;10376847;28;20033;-58
2023/07/04 13:51:57;;;;;;;2.58;1.80;;;;;;;;;;10386322;28;20048;-58
2023/07/04 13:56:59;;;;;;;2.63;1.70;;;;;;;;;;10392381;28;20026;-59
2023/07/04 14:02:00;;;;;;;2.53;1.70;;;;;;;;;;10384917;28;20029;-58
2023/07/04 14:07:01;;;;;;;3.83;1.70;;;;;;;;;;10369021;28;20037;-58
2023/07/04 14:12:01;;;;;;;2.88;2.08;;;;;;;;;;10377943;28;20025;-59
2023/07/04 14:17:02;;;;;;;2.45;1.65;;;;;;;;;;10379337;28;20022;-58
2023/07/04 14:22:02;;;;;;;6.18;1.77;;;;;;;;;;10385272;28;20025;-59
2023/07/04 14:27:03;;;;;;;3.10;1.50;;;;;;;;;;10378153;28;20048;-59
2023/07/04 14:32:04;;;;;;;2.88;1.73;;;;;;;;;;10403051;28;20018;-58
2023/07/04 14:37:05;;;;;;;6.72;1.75;;;;;;;;;;10411334;28;20033;-59
2023/07/04 14:42:06;;;;;;;4.80;1.73;;;;;;;;;;10392858;28;20049;-60
2023/07/04 14:47:07;;;;;;;2.35;1.30;;;;;;;;;;10389639;28;20057;-59
2023/07/04 14:52:09;;;;;;;4.60;1.50;;;;;;;;;;10397598;28;20132;-58
2023/07/04 14:57:09;;;;;;;1.25;1.13;;;;;;;;;;10399286;28;20480;-60
2023/07/04 15:02:10;;;;;;;3.20;1.27;;;;;;;;;;10400810;28;20018;-60
2023/07/04 15:07:11;;;;;;;2.28;1.50;;;;;;;;;;10402215;28;20026;-59
2023/07/04 15:12:11;;;;;;;2.28;1.30;;;;;;;;;;10379423;28;20389;-60
2023/07/04 15:17:12;;;;;;;2.70;1.42;;;;;;;;;;10391115;28;20096;-60
2023/07/04 15:22:13;;;;;;;1.33;1.20;;;;;;;;;;10372769;28;20029;-59
2023/07/04 15:27:13;;;;;;;4.15;1.27;;;;;;;;;;10385141;28;20037;-59
2023/07/04 15:32:14;;;;;;;1.73;1.40;;;;;;;;;;10391007;28;20381;-58
2023/07/04 15:37:14;;;;;;;2.80;1.35;;;;;;;;;;10403295;28;20492;-60
2023/07/04 15:42:15;;;;;;;2.53;1.23;;;;;;;;;;10400841;28;20401;-60
2023/07/04 15:47:17;;;;;;;2.28;1.50;;;;;;;;;;10395759;28;20384;-58
2023/07/04 15:52:18;;;;;;;2.60;1.30;;;;;;;;;;10379734;28;20105;-58
2023/07/04 15:57:18;;;;;;;2.00;1.30;;;;;;;;;;10371748;28;20381;-58
2023/07/04 16:02:19;;;;;;;4.07;1.27;;;;;;;;;;10385092;28;21363;-57
2023/07/04 16:07:19;;;;;;;4.90;1.75;;;;;;;;;;10379604;28;20961;-58
2023/07/04 16:12:20;;;;;;;1.27;1.17;;;;;;;;;;10396868;28;20017;-58
2023/07/04 16:17:21;;;;;;;1.30;1.02;;;;;;;;;;10407519;28;20079;-59
2023/07/04 16:22:21;;;;;;;3.92;1.35;;;;;;;;;;10406737;28;20429;-58
2023/07/04 16:27:22;;;;;;;4.20;1.50;;;;;;;;;;10370957;28;20369;-57
2023/07/04 16:32:22;;;;;;;1.13;1.10;;;;;;;;;;10384505;28;20370;-58
2023/07/04 16:37:23;;;;;;;2.95;1.45;;;;;;;;;;10379984;28;20036;-58
2023/07/04 16:42:23;;;;;;;3.20;1.25;;;;;;;;;;10399672;28;20099;-58
2023/07/04 16:47:24;;;;;;;4.43;1.38;;;;;;;;;;10382642;28;20485;-59
2023/07/04 16:52:25;;;;;;;1.58;1.00;;;;;;;;;;10390698;28;20507;-58
2023/07/04 16:57:26;;;;;;;2.08;1.50;;;;;;;;;;10395832;28;20022;-58
2023/07/04 17:02:26;;;;;;;1.92;1.42;;;;;;;;;;10396793;28;20113;-59
2023/07/04 17:07:27;;;;;;;1.90;1.20;;;;;;;;;;10387559;28;20199;-58
2023/07/04 17:12:27;;;;;;;1.60;1.38;;;;;;;;;;10390483;28;20029;-58
2023/07/04 17:17:28;;;;;;;1.48;1.38;;;;;;;;;;10381791;28;20037;-58
2023/07/04 17:22:29;;;;;;;1.48;1.30;;;;;;;;;;10392427;28;20025;-57
2023/07/04 17:27:29;;;;;;;1.75;1.25;;;;;;;;;;10388584;28;20033;-58
2023/07/04 17:32:30;;;;;;;4.55;1.50;;;;;;;;;;10391339;28;20260;-58
2023/07/04 17:37:30;;;;;;;2.00;1.75;;;;;;;;;;10391104;28;20023;-58
2023/07/04 17:42:31;;;;;;;3.75;1.55;;;;;;;;;;10404633;28;20041;-59
2023/07/04 17:47:32;;;;;;;1.88;1.38;;;;;;;;;;10386152;28;20040;-58
2023/07/04 17:52:32;;;;;;;1.58;1.33;;;;;;;;;;10395259;28;20033;-58
2023/07/04 17:57:33;;;;;;;2.08;1.65;;;;;;;;;;10382411;28;20026;-58
2023/07/04 18:02:34;;;;;;;2.15;1.48;;;;;;;;;;10396138;28;20030;-58
2023/07/04 18:07:34;;;;;;;1.75;1.20;;;;;;;;;;10386871;28;20030;-58
2023/07/04 18:12:35;;;;;;;2.65;1.30;;;;;;;;;;10393172;28;20485;-58
2023/07/04 18:17:36;;;;;;;2.20;1.50;;;;;;;;;;10394852;28;20040;-59
2023/07/04 18:22:36;;;;;;;3.05;1.40;;;;;;;;;;10379341;28;20029;-59
2023/07/04 18:27:37;;;;;;;1.98;1.38;;;;;;;;;;10389268;28;20038;-60
2023/07/04 18:32:37;;;;;;;5.65;1.60;;;;;;;;;;10366090;28;20131;-59
2023/07/04 18:37:38;;;;;;;2.67;1.67;;;;;;;;;;10381723;28;20033;-58
2023/07/04 18:42:42;;;;;;;2.70;1.23;;;;;;;;;;10386903;28;20497;-58
2023/07/04 18:47:42;;;;;;;2.45;1.50;;;;;;;;;;10383739;28;20029;-59
2023/07/04 18:52:43;;;;;;;4.60;1.95;;;;;;;;;;10382953;28;20388;-58
2023/07/04 18:57:44;;;;;;;4.72;2.10;;;;;;;;;;10385936;28;20473;-58
2023/07/04 19:02:44;;;;;;;5.38;2.28;;;;;;;;;;10390895;28;20087;-58
2023/07/04 19:07:45;;;;;;;4.55;2.53;;;;;;;;;;10387672;28;20060;-58
2023/07/04 19:12:46;;;;;;;4.95;2.50;;;;;;;;;;10384646;28;20032;-58
2023/07/04 19:17:50;;;;;;;3.47;2.20;;;;;;;;;;10392653;28;20029;-59
2023/07/04 19:22:51;;;;;;;2.92;2.20;;;;;;;;;;10391383;28;20363;-59
2023/07/04 19:27:51;;;;;;;4.03;2.75;;;;;;;;;;10396839;28;20034;-59
2023/07/04 19:32:52;;;;;;;4.47;2.75;;;;;;;;;;10377558;28;20381;-58
2023/07/04 19:37:52;;;;;;;6.10;2.83;;;;;;;;;;10394710;28;20401;-59
2023/07/04 19:42:53;;;;;;;5.90;2.50;;;;;;;;;;10400567;28;20048;-59
2023/07/04 19:47:53;;;;;;;4.50;2.55;;;;;;;;;;10398719;28;20034;-59
2023/07/04 19:52:54;;;;;;;7.07;2.75;;;;;;;;;;10389075;28;20033;-59
2023/07/04 19:57:55;;;;;;;3.47;2.55;;;;;;;;;;10376626;28;20033;-59
2023/07/04 20:02:56;;;;;;;3.70;2.97;;;;;;;;;;10385571;28;20026;-59
2023/07/04 20:07:56;;;;;;;2.60;2.35;;;;;;;;;;10381444;28;20033;-59
2023/07/04 20:12:57;;;;;;;3.60;2.53;;;;;;;;;;10393982;28;20032;-59
2023/07/04 20:17:57;;;;;;;3.78;2.53;;;;;;;;;;10392522;28;20076;-60
2023/07/04 20:22:58;;;;;;;4.78;3.00;;;;;;;;;;10380547;28;20283;-59
2023/07/04 20:28:04;;;;;;;3.25;2.75;;;;;;;;;;10376458;28;20091;-59
2023/07/04 20:33:05;;;;;;;3.80;2.83;;;;;;;;;;10381716;28;20256;-59
2023/07/04 20:38:06;;;;;;;3.80;2.63;;;;;;;;;;10381648;28;20451;-59
2023/07/04 20:43:09;;;;;;;6.28;2.90;;;;;;;;;;10379141;28;20054;-60
2023/07/04 20:48:11;;;;;;;3.92;3.00;;;;;;;;;;10391129;28;20038;-58
2023/07/04 20:53:12;;;;;;;6.45;3.72;;;;;;;;;;10383359;28;20172;-60
2023/07/04 20:58:13;;;;;;;8.07;3.83;;;;;;;;;;10375642;28;20540;-59
2023/07/04 21:03:14;;;;;;;5.90;3.50;;;;;;;;;;10403259;28;20040;-59
2023/07/04 21:08:15;;;;;;;5.55;3.35;;;;;;;;;;10382560;28;20044;-59
2023/07/04 21:13:19;;;;;;;4.43;3.05;;;;;;;;;;10392005;28;20021;-59
2023/07/04 21:18:19;;;;;;;5.95;3.63;;;;;;;;;;10371076;28;20049;-59
2023/07/04 21:23:21;;;;;;;5.20;3.70;;;;;;;;;;10401043;28;20516;-59
2023/07/04 21:28:22;;;;;;;5.45;3.28;;;;;;;;;;10384984;28;20025;-59
2023/07/04 21:33:22;;;;;;;5.35;3.40;;;;;;;;;;10374839;28;20021;-58
2023/07/04 21:38:23;;;;;;;3.95;2.78;;;;;;;;;;10399653;28;20030;-59
2023/07/04 21:43:25;;;;;;;3.83;3.20;;;;;;;;;;10378021;28;20049;-59
2023/07/04 21:48:27;;;;;;;6.43;3.83;;;;;;;;;;10377151;28;20417;-59
2023/07/04 21:53:28;;;;;;;4.28;3.05;;;;;;;;;;10374250;28;20038;-59
2023/07/04 21:58:29;;;;;;;4.25;2.80;;;;;;;;;;10383896;28;20037;-59
2023/07/04 22:03:32;;;;;;;4.85;3.42;;;;;;;;;;10399992;28;20275;-59
2023/07/04 22:08:38;;;;;;;8.25;3.50;;;;;;;;;;10382527;28;20034;-59
2023/07/04 22:13:43;;;;;;;5.82;3.80;;;;;;;;;;10372465;28;20045;-58
2023/07/04 22:18:45;;;;;;;5.47;3.55;;;;;;;;;;10382599;28;20084;-58
2023/07/04 22:23:48;;;;;;;4.25;2.85;;;;;;;;;;10375681;28;20053;-58
2023/07/04 22:28:49;;;;;;;4.80;3.60;;;;;;;;;;10360486;28;20467;-57
2023/07/04 22:34:05;;;;;;;7.25;3.85;;;;;;;;;;10370350;28;20026;-59
2023/07/04 22:39:08;;;;;;;16.23;4.15;;;;;;;;;;10382381;28;20045;-58
2023/07/04 22:44:10;;;;;;;3.80;3.40;;;;;;;;;;10381100;28;20042;-57
2023/07/04 22:49:12;;;;;;;10.45;4.00;;;;;;;;;;10377362;28;20397;-58
2023/07/04 22:54:12;;;;;;;9.57;4.45;;;;;;;;;;10385066;28;20021;-58
2023/07/04 22:59:13;;;;;;;5.55;3.58;;;;;;;;;;10390772;28;20029;-58
2023/07/04 23:04:14;;;;;;;4.40;3.60;;;;;;;;;;10388053;28;20189;-59
2023/07/04 23:09:15;;;;;;;4.45;3.47;;;;;;;;;;10380801;28;20037;-57
2023/07/04 23:14:15;;;;;;;9.98;3.95;;;;;;;;;;10385216;28;20017;-59
2023/07/04 23:19:16;;;;;;;6.78;4.20;;;;;;;;;;10390887;28;20034;-58
2023/07/04 23:24:17;;;;;;;5.47;3.90;;;;;;;;;;10375319;28;20481;-58
2023/07/04 23:29:17;;;;;;;5.57;3.85;;;;;;;;;;10395014;28;20124;-58
2023/07/04 23:34:18;;;;;;;7.45;3.88;;;;;;;;;;10401915;28;20037;-58
2023/07/04 23:39:19;;;;;;;6.50;4.35;;;;;;;;;;10395165;28;20531;-58
2023/07/04 23:44:19;;;;;;;6.35;4.32;;;;;;;;;;10375933;28;20121;-58
2023/07/04 23:49:20;;;;;;;5.55;3.75;;;;;;;;;;10386757;28;20029;-58
2023/07/04 23:54:20;;;;;;;7.60;3.58;;;;;;;;;;10388383;28;20482;-58
2023/07/04 23:59:21;;;;;;;3.33;3.03;;;;;;;;;;10377500;28;20041;-58
